»·PEaware :: SWA591 KSFO-KSNA

SWA591 :: KSFO-KSNA

FLIGHT INFORMATION

Flight Status: Arrived
Operator:
Southwest Airlines
More flights by this operator :: More flights under this callsign
Pilot: Paul A. (20189)
Aircraft: BOEING 737-700
(B737)
More flights by this aircraft type
Origin: KSFO San Francisco Intl
United States
Destination: KSNA John Wayne-Orange Co
United States
More flights between these airports :: More routes between these airports
Route: +OFFSH1 MCKEY TILLT TILLT2
File this flight plan on PilotEdge
Remarks:
Altitude:
(Current/Filed)
37,000ft
Speed:
(Current/Filed)
455kts
Departed: 04-Nov-18 06:42 PM
Arrived: 04-Nov-18 07:52 PM
Distance/Time
Traveled:
323nm/1:10
Distance/Time
To Go:
Arrived

Flight Plot

Page will automatically refresh every two minutes.

Flight plan parsing failed; only flown route is shown


Map Options




Map Legend


Flown Route
Filed Route
Departure Airport
Arrival Airport
Navaid (VOR, NDB)
Fix

Horizontal Profiles

Position Reports

Time Latitude Longitude Heading Altitude Ground
Speed
04-Nov-18 18:24 37.613207 -122.383180 261 20ft 0kts
04-Nov-18 18:25 37.613207 -122.383180 261 20ft 0kts
04-Nov-18 18:26 37.613207 -122.383180 261 21ft 0kts
04-Nov-18 18:26 37.613207 -122.383180 261 21ft 0kts
04-Nov-18 18:28 37.613207 -122.383180 261 21ft 0kts
04-Nov-18 18:29 37.613207 -122.383180 261 21ft 0kts
04-Nov-18 18:30 37.613207 -122.383180 261 21ft 0kts
04-Nov-18 18:30 37.613207 -122.383180 261 21ft 0kts
04-Nov-18 18:31 37.613207 -122.383180 261 21ft 0kts
04-Nov-18 18:32 37.613207 -122.383180 261 21ft 0kts
04-Nov-18 18:33 37.613207 -122.383180 261 21ft 0kts
04-Nov-18 18:34 37.613207 -122.383180 261 21ft 0kts
04-Nov-18 18:35 37.613393 -122.382473 222 21ft 2kts
04-Nov-18 18:36 37.613829 -122.381979 221 21ft 2kts
04-Nov-18 18:37 37.614085 -122.381688 221 21ft 0kts
04-Nov-18 18:38 37.614085 -122.381688 221 21ft 0kts
04-Nov-18 18:39 37.613217 -122.381987 195 21ft 11kts
04-Nov-18 18:40 37.609970 -122.384148 217 21ft 11kts
04-Nov-18 18:41 37.608500 -122.383893 115 20ft 0kts
04-Nov-18 18:43 37.608500 -122.383891 115 20ft 0kts
04-Nov-18 18:44 37.608412 -122.382572 29 21ft 13kts
04-Nov-18 18:45 37.639787 -122.361435 15 1185ft 198kts
04-Nov-18 18:46 37.688837 -122.374711 307 3923ft 224kts
04-Nov-18 18:47 37.669843 -122.451733 233 6559ft 281kts
04-Nov-18 18:48 37.627994 -122.537553 244 10073ft 292kts
04-Nov-18 18:49 37.583818 -122.632480 244 12242ft 348kts
04-Nov-18 18:50 37.512355 -122.718786 197 14984ft 394kts
04-Nov-18 18:51 37.399885 -122.696357 167 17771ft 424kts
04-Nov-18 18:52 37.284335 -122.657542 170 20333ft 436kts
04-Nov-18 18:53 37.164220 -122.624843 172 22580ft 448kts
04-Nov-18 18:54 37.040320 -122.592306 172 24536ft 459kts
04-Nov-18 18:55 36.913626 -122.559290 172 26245ft 470kts
04-Nov-18 18:56 36.784075 -122.525673 172 27755ft 481kts
04-Nov-18 18:57 36.651559 -122.491246 171 29098ft 491kts
04-Nov-18 18:58 36.517362 -122.456627 171 30603ft 492kts
04-Nov-18 18:59 36.392909 -122.388163 138 32199ft 502kts
04-Nov-18 19:00 36.301271 -122.257635 130 33808ft 501kts
04-Nov-18 19:01 36.211556 -122.126148 130 35037ft 501kts
04-Nov-18 19:02 36.121666 -121.995046 130 35052ft 497kts
04-Nov-18 19:03 36.031981 -121.865302 130 35047ft 497kts
04-Nov-18 19:04 35.941564 -121.735196 131 35041ft 497kts
04-Nov-18 19:05 35.851503 -121.606137 131 35040ft 496kts
04-Nov-18 19:06 35.761184 -121.477210 131 35035ft 496kts
04-Nov-18 19:07 35.670943 -121.348613 130 35021ft 496kts
04-Nov-18 19:08 35.580706 -121.220740 131 35013ft 496kts
04-Nov-18 19:09 35.491902 -121.090967 124 35012ft 496kts
04-Nov-18 19:10 35.407498 -120.957823 132 35012ft 496kts
04-Nov-18 19:11 35.306611 -120.842310 139 35010ft 496kts
04-Nov-18 19:12 35.203320 -120.730698 138 35010ft 495kts
04-Nov-18 19:13 35.103459 -120.623671 138 35011ft 495kts
04-Nov-18 19:14 35.000276 -120.523215 147 35017ft 493kts
04-Nov-18 19:15 34.893379 -120.438074 147 35020ft 492kts
04-Nov-18 19:16 34.779012 -120.346097 146 35024ft 490kts
04-Nov-18 19:17 34.669298 -120.257954 146 35028ft 489kts
04-Nov-18 19:18 34.555812 -120.167362 146 35024ft 487kts
04-Nov-18 19:19 34.446279 -120.080173 146 35013ft 486kts
04-Nov-18 19:20 34.333408 -119.990197 146 34985ft 486kts
04-Nov-18 19:21 34.220233 -119.900338 146 34975ft 486kts
04-Nov-18 19:22 34.107664 -119.810662 142 33686ft 482kts
04-Nov-18 19:23 34.023896 -119.685510 118 30304ft 484kts
04-Nov-18 19:24 33.955949 -119.547963 120 27565ft 471kts
04-Nov-18 19:25 33.889083 -119.415006 120 25440ft 449kts
04-Nov-18 19:26 33.825985 -119.287098 120 23089ft 442kts
04-Nov-18 19:27 33.763521 -119.160991 119 20760ft 435kts
04-Nov-18 19:28 33.703712 -119.039607 118 18494ft 405kts
04-Nov-18 19:29 33.647625 -118.926715 118 16506ft 386kts
04-Nov-18 19:30 33.593646 -118.818708 118 15148ft 372kts
04-Nov-18 19:31 33.559473 -118.706362 96 13166ft 353kts
04-Nov-18 19:32 33.542388 -118.593431 98 11095ft 326kts
04-Nov-18 19:33 33.526013 -118.492314 99 9462ft 297kts
04-Nov-18 19:34 33.519758 -118.397146 90 8020ft 276kts
04-Nov-18 19:35 33.525612 -118.306647 69 6692ft 272kts
04-Nov-18 19:36 33.551931 -118.226445 67 5648ft 270kts
04-Nov-18 19:37 33.578721 -118.156606 55 5007ft 220kts
04-Nov-18 19:38 33.608753 -118.103761 54 5015ft 198kts
04-Nov-18 19:39 33.639875 -118.048211 55 5004ft 201kts
04-Nov-18 19:40 33.671000 -117.992210 55 5000ft 201kts
04-Nov-18 19:41 33.705618 -117.940083 32 5000ft 200kts
04-Nov-18 19:42 33.754680 -117.908978 25 5001ft 199kts
04-Nov-18 19:43 33.803078 -117.876139 28 4997ft 199kts
04-Nov-18 19:44 33.850894 -117.842582 28 4996ft 199kts
04-Nov-18 19:45 33.898079 -117.809412 28 4998ft 194kts
04-Nov-18 19:46 33.944807 -117.776407 32 5007ft 194kts
04-Nov-18 19:47 33.940643 -117.716893 130 4053ft 188kts
04-Nov-18 19:48 33.900443 -117.726947 207 3987ft 147kts
04-Nov-18 19:49 33.864062 -117.749305 208 3297ft 145kts
04-Nov-18 19:50 33.828516 -117.771818 208 2971ft 141kts
04-Nov-18 19:51 33.792726 -117.794564 208 2479ft 143kts
04-Nov-18 19:52 33.758286 -117.816441 207 1735ft 137kts
04-Nov-18 19:53 33.724756 -117.837723 207 1011ft 135kts
04-Nov-18 19:54 33.691003 -117.859069 207 269ft 135kts
04-Nov-18 19:55 33.670340 -117.872152 193 64ft 20kts
04-Nov-18 19:56 33.669295 -117.870751 46 64ft 14kts
04-Nov-18 19:57 33.673806 -117.866669 29 64ft 18kts
04-Nov-18 19:58 33.675382 -117.864953 119 64ft 0kts

Navigation Log

Ident Type
Flight plan parsing failed, navigation log unavailable